Time;durP1;ratioP1;P1;durP2;ratioP2;P2;SDS_P1;SDS_P2;PMS_P1;PMS_P2;Temp;Humidity;BMP_temperature;BMP_pressure;BME280_temperature;BME280_humidity;BME280_pressure;Samples;Min_cycle;Max_cycle;Signal;HPM_P1;HPM_P2
2021/04/15 00:01:00;;;;;;;;;;;;;;;21.15;48.16;102347.94;2076033;28;3756;-68
2021/04/15 00:02:01;;;;;;;;;;;;;;;21.18;48.24;102350.13;2077420;28;3860;-67
2021/04/15 00:03:02;;;;;;;;;;;;;;;21.18;48.27;102350.13;2077517;28;3964;-67
2021/04/15 00:04:03;;;;;;;;;;;;;;;21.18;48.34;102350.13;2077271;28;4025;-67
2021/04/15 00:05:04;;;;;;;;;;;;;;;21.18;48.21;102348.13;2077293;28;4307;-67
2021/04/15 00:06:04;;;;;;;;;;;;;;;21.19;48.23;102348.97;2076895;28;3828;-67
2021/04/15 00:07:05;;;;;;;;;;;;;;;21.19;48.17;102346.97;2076577;28;4004;-67
2021/04/15 00:08:06;;;;;;;;;;;;;;;21.19;48.39;102346.13;2076929;28;3788;-67
2021/04/15 00:09:07;;;;;;;;;;;;;;;21.20;48.20;102356.34;2076578;28;3883;-68
2021/04/15 00:10:07;;;;;;;;;;;;;;;21.19;48.35;102346.97;2075836;28;3917;-68
2021/04/15 00:11:08;;;;;;;;;;;;;;;21.19;48.19;102346.13;2076852;28;5208;-68
2021/04/15 00:12:09;;;;;;;;;;;;;;;21.19;48.14;102349.81;2077459;28;3866;-68
2021/04/15 00:13:09;;;;;;;;;;;;;;;21.19;48.37;102348.97;2077671;28;4100;-68
2021/04/15 00:14:10;;;;;;;;;;;;;;;21.18;48.23;102348.13;2077209;28;3920;-68
2021/04/15 00:15:11;;;;;;;;;;;;;;;21.18;48.24;102345.28;2077282;28;3939;-71
2021/04/15 00:16:12;;;;;;;;;;;;;;;21.18;48.23;102350.97;2076680;28;4161;-68
2021/04/15 00:17:13;;;;;;;;;;;;;;;21.18;48.24;102345.28;2076862;28;3844;-72
2021/04/15 00:18:13;;;;;;;;;;;;;;;21.18;48.28;102339.59;2076620;28;4079;-70
2021/04/15 00:19:16;;;;;;;;;;;;;;;21.18;48.40;102348.13;2077638;28;4048;-68
2021/04/15 00:20:16;;;;;;;;;;;;;;;21.19;48.25;102351.81;2076767;28;3970;-67
2021/04/15 00:21:17;;;;;;;;;;;;;;;21.18;48.24;102345.28;2075976;28;4046;-68
2021/04/15 00:22:18;;;;;;;;;;;;;;;21.18;48.23;102348.13;2076787;28;3854;-67
2021/04/15 00:23:18;;;;;;;;;;;;;;;21.18;48.21;102350.13;2077242;28;3735;-70
2021/04/15 00:24:19;;;;;;;;;;;;;;;21.18;48.36;102350.97;2077340;28;3844;-69
2021/04/15 00:25:20;;;;;;;;;;;;;;;21.19;48.34;102343.28;2077865;28;3864;-68
2021/04/15 00:26:21;;;;;;;;;;;;;;;21.19;48.27;102341.25;2077367;28;4001;-72
2021/04/15 00:27:22;;;;;;;;;;;;;;;21.18;48.45;102345.28;2076865;28;4578;-68
2021/04/15 00:28:22;;;;;;;;;;;;;;;21.19;48.28;102340.44;2077083;28;3871;-70
2021/04/15 00:29:23;;;;;;;;;;;;;;;21.18;48.40;102345.28;2076852;28;4041;-70
2021/04/15 00:30:24;;;;;;;;;;;;;;;21.19;48.26;102346.13;2077143;28;3866;-70
2021/04/15 00:31:25;;;;;;;;;;;;;;;21.20;48.40;102344.94;2077205;28;4032;-68
2021/04/15 00:32:25;;;;;;;;;;;;;;;21.20;48.40;102342.09;2077430;28;3872;-70
2021/04/15 00:33:26;;;;;;;;;;;;;;;21.20;48.50;102345.81;2076490;28;3998;-70
2021/04/15 00:34:28;;;;;;;;;;;;;;;21.19;48.38;102341.25;2076789;28;4423;-67
2021/04/15 00:35:29;;;;;;;;;;;;;;;21.19;48.51;102346.97;2077249;28;4193;-67
2021/04/15 00:36:30;;;;;;;;;;;;;;;21.18;48.39;102342.44;2076966;28;5227;-67
2021/04/15 00:37:30;;;;;;;;;;;;;;;21.17;48.58;102343.56;2077163;28;4165;-72
2021/04/15 00:38:31;;;;;;;;;;;;;;;21.16;48.46;102336.22;2077090;28;3766;-69
2021/04/15 00:39:32;;;;;;;;;;;;;;;21.17;48.39;102348.44;2076908;28;3906;-67
2021/04/15 00:40:32;;;;;;;;;;;;;;;21.17;48.43;102337.88;2077717;28;4063;-71
2021/04/15 00:41:34;;;;;;;;;;;;;;;21.17;48.59;102342.75;2074484;28;4054;-71
2021/04/15 00:42:36;;;;;;;;;;;;;;;21.18;48.58;102336.75;2076713;28;3859;-68
2021/04/15 00:43:37;;;;;;;;;;;;;;;21.19;48.36;102340.44;2077031;28;4003;-69
2021/04/15 00:44:37;;;;;;;;;;;;;;;21.18;48.40;102339.59;2077270;28;3909;-70
2021/04/15 00:45:38;;;;;;;;;;;;;;;21.20;48.38;102336.41;2076489;28;3870;-72
2021/04/15 00:46:39;;;;;;;;;;;;;;;21.19;48.34;102340.44;2077762;28;5141;-70
2021/04/15 00:47:40;;;;;;;;;;;;;;;21.20;48.41;102342.09;2076774;28;3985;-71
2021/04/15 00:48:41;;;;;;;;;;;;;;;21.21;48.64;102343.81;2077793;28;5070;-69
2021/04/15 00:49:42;;;;;;;;;;;;;;;21.20;48.54;102342.09;2077015;28;3887;-69
2021/04/15 00:50:42;;;;;;;;;;;;;;;21.18;48.45;102336.75;2076566;28;3853;-68
2021/04/15 00:51:43;;;;;;;;;;;;;;;21.19;48.65;102340.44;2076783;28;4038;-69
2021/04/15 00:52:44;;;;;;;;;;;;;;;21.18;48.53;102345.28;2076803;28;4166;-69
2021/04/15 00:53:45;;;;;;;;;;;;;;;21.18;48.55;102341.59;2077343;28;3888;-69
2021/04/15 00:54:46;;;;;;;;;;;;;;;21.14;48.50;102335.69;2077216;28;3997;-69
2021/04/15 00:55:46;;;;;;;;;;;;;;;21.17;48.57;102342.75;2076777;28;3989;-69
2021/04/15 00:56:47;;;;;;;;;;;;;;;21.17;48.43;102348.44;2076606;28;4033;-69
2021/04/15 00:57:48;;;;;;;;;;;;;;;21.16;48.46;102339.06;2075730;28;3910;-69
2021/04/15 00:58:49;;;;;;;;;;;;;;;21.16;48.55;102341.06;2075585;28;3850;-69
2021/04/15 00:59:50;;;;;;;;;;;;;;;21.15;48.48;102343.06;2077359;28;4030;-69
2021/04/15 01:00:51;;;;;;;;;;;;;;;21.16;48.43;102341.06;2076511;28;4151;-69
2021/04/15 01:01:51;;;;;;;;;;;;;;;21.15;48.56;102343.06;2077092;28;3783;-68
2021/04/15 01:02:52;;;;;;;;;;;;;;;21.15;48.37;102345.91;2077780;28;3977;-69
2021/04/15 01:03:53;;;;;;;;;;;;;;;21.15;48.56;102337.38;2077235;28;3866;-69
2021/04/15 01:04:54;;;;;;;;;;;;;;;21.16;48.58;102341.06;2077535;28;4375;-69
2021/04/15 01:05:55;;;;;;;;;;;;;;;21.15;48.46;102342.25;2077286;28;3895;-69
2021/04/15 01:06:55;;;;;;;;;;;;;;;21.15;48.53;102339.38;2071330;28;3855;-70
2021/04/15 01:07:56;;;;;;;;;;;;;;;21.15;48.55;102336.53;2072340;28;4247;-70
2021/04/15 01:08:59;;;;;;;;;;;;;;;21.15;48.61;102337.38;2077975;28;3839;-70
2021/04/15 01:10:06;;;;;;;;;;;;;;;21.15;48.41;102339.38;2078644;28;4111;-68
2021/04/15 01:11:08;;;;;;;;;;;;;;;21.15;48.53;102345.91;2073767;28;3809;-69
2021/04/15 01:12:08;;;;;;;;;;;;;;;21.15;48.46;102340.22;2073500;28;4024;-68
2021/04/15 01:13:09;;;;;;;;;;;;;;;21.16;48.72;102341.06;2079083;28;3989;-68
2021/04/15 01:14:10;;;;;;;;;;;;;;;21.16;48.61;102343.91;2078730;28;3823;-69
2021/04/15 01:15:11;;;;;;;;;;;;;;;21.15;48.62;102337.38;2078360;28;3905;-69
2021/04/15 01:16:12;;;;;;;;;;;;;;;21.15;48.65;102340.22;2079031;28;4017;-69
2021/04/15 01:17:13;;;;;;;;;;;;;;;21.15;48.59;102337.38;2077409;28;3997;-69
2021/04/15 01:18:14;;;;;;;;;;;;;;;21.15;48.58;102350.78;2069549;28;4031;-69
2021/04/15 01:19:14;;;;;;;;;;;;;;;21.13;48.46;102343.38;2069273;28;3847;-69
2021/04/15 01:20:15;;;;;;;;;;;;;;;21.13;48.48;102346.22;2079374;28;4078;-69
2021/04/15 01:21:16;;;;;;;;;;;;;;;21.15;48.76;102340.22;2078603;28;3991;-69
2021/04/15 01:22:16;;;;;;;;;;;;;;;21.15;48.65;102337.38;2078926;28;3748;-70
2021/04/15 01:23:17;;;;;;;;;;;;;;;21.15;48.65;102340.22;2075293;28;3966;-71
2021/04/15 01:24:18;;;;;;;;;;;;;;;21.15;48.64;102333.69;2078555;28;3815;-71
2021/04/15 01:25:19;;;;;;;;;;;;;;;21.15;48.70;102340.22;2078830;28;3919;-70
2021/04/15 01:26:19;;;;;;;;;;;;;;;21.15;48.71;102333.69;2078683;28;3675;-71
2021/04/15 01:27:20;;;;;;;;;;;;;;;21.15;48.72;102333.69;2075105;28;3809;-71
2021/04/15 01:28:21;;;;;;;;;;;;;;;21.15;48.90;102336.53;2076503;28;3931;-71
2021/04/15 01:29:22;;;;;;;;;;;;;;;21.14;48.88;102335.69;2076571;28;3894;-71
2021/04/15 01:30:22;;;;;;;;;;;;;;;21.15;48.89;102334.53;2075980;28;4028;-71
2021/04/15 01:31:23;;;;;;;;;;;;;;;21.14;48.77;102332.84;2076569;28;4212;-71
2021/04/15 01:32:24;;;;;;;;;;;;;;;21.13;48.90;102331.16;2077957;28;3851;-71
2021/04/15 01:33:25;;;;;;;;;;;;;;;21.14;48.93;102330.00;2077449;28;3949;-71
2021/04/15 01:34:26;;;;;;;;;;;;;;;21.13;48.83;102326.31;2078007;28;4155;-71
2021/04/15 01:35:27;;;;;;;;;;;;;;;21.13;48.86;102326.31;2078326;28;4019;-70
2021/04/15 01:36:28;;;;;;;;;;;;;;;21.15;49.16;102333.69;2070133;28;4048;-71
2021/04/15 01:37:29;;;;;;;;;;;;;;;21.14;49.22;102332.84;2069850;28;4010;-71
2021/04/15 01:38:30;;;;;;;;;;;;;;;21.15;49.25;102334.53;2077636;28;4039;-68
2021/04/15 01:39:32;;;;;;;;;;;;;;;21.14;49.08;102332.84;2077086;28;3964;-68
2021/04/15 01:40:32;;;;;;;;;;;;;;;21.13;49.16;102326.31;2077775;28;4022;-68
2021/04/15 01:41:33;;;;;;;;;;;;;;;21.13;49.13;102323.47;2077964;28;4088;-69
2021/04/15 01:42:34;;;;;;;;;;;;;;;21.13;48.99;102326.31;2077860;28;3857;-69
2021/04/15 01:43:34;;;;;;;;;;;;;;;21.13;49.02;102334.00;2077893;28;3860;-70
2021/04/15 01:44:36;;;;;;;;;;;;;;;21.13;49.07;102326.31;2078303;28;4218;-71
2021/04/15 01:45:37;;;;;;;;;;;;;;;21.12;49.02;102324.63;2075156;28;3811;-70
2021/04/15 01:46:37;;;;;;;;;;;;;;;21.12;49.02;102329.47;2078383;28;3972;-69
2021/04/15 01:47:38;;;;;;;;;;;;;;;21.12;49.16;102324.63;2077754;28;3852;-69
2021/04/15 01:48:39;;;;;;;;;;;;;;;21.12;49.16;102324.63;2078336;28;3884;-69
2021/04/15 01:49:40;;;;;;;;;;;;;;;21.12;49.01;102323.78;2077552;28;4170;-69
2021/04/15 01:50:41;;;;;;;;;;;;;;;21.12;49.11;102329.47;2078214;28;3771;-69
2021/04/15 01:51:43;;;;;;;;;;;;;;;21.11;48.98;102328.63;2078006;28;3989;-70
2021/04/15 01:52:43;;;;;;;;;;;;;;;21.11;49.16;102324.94;2077663;28;3838;-69
2021/04/15 01:53:44;;;;;;;;;;;;;;;21.11;49.13;102325.78;2078159;28;4043;-70
2021/04/15 01:54:45;;;;;;;;;;;;;;;21.11;49.02;102330.63;2077214;28;4001;-69
2021/04/15 01:55:46;;;;;;;;;;;;;;;21.10;49.18;102326.09;2078654;28;4408;-69
2021/04/15 01:56:46;;;;;;;;;;;;;;;21.09;49.07;102328.13;2077281;28;4124;-69
2021/04/15 01:57:47;;;;;;;;;;;;;;;21.10;49.20;102321.25;2077893;28;3778;-69
2021/04/15 01:58:48;;;;;;;;;;;;;;;21.10;49.06;102328.94;2068742;28;3871;-69
2021/04/15 01:59:48;;;;;;;;;;;;;;;21.10;49.01;102323.25;2068977;28;4988;-69
2021/04/15 02:00:49;;;;;;;;;;;;;;;21.09;48.99;102330.13;2078212;28;3951;-70
2021/04/15 02:01:50;;;;;;;;;;;;;;;21.10;48.97;102332.63;2078269;28;4053;-70
2021/04/15 02:02:51;;;;;;;;;;;;;;;21.09;49.19;102328.13;2077911;28;3907;-69
2021/04/15 02:03:52;;;;;;;;;;;;;;;21.09;49.11;102330.97;2078014;28;4333;-69
2021/04/15 02:04:52;;;;;;;;;;;;;;;21.09;49.05;102327.28;2077118;28;3923;-69
2021/04/15 02:05:53;;;;;;;;;;;;;;;21.08;49.12;102326.41;2076669;28;3930;-69
2021/04/15 02:06:54;;;;;;;;;;;;;;;21.09;49.10;102332.97;2078123;28;4010;-69
2021/04/15 02:07:54;;;;;;;;;;;;;;;21.08;49.16;102323.56;2077938;28;4018;-69
2021/04/15 02:08:55;;;;;;;;;;;;;;;21.09;49.08;102332.97;2077520;28;3873;-69
2021/04/15 02:09:56;;;;;;;;;;;;;;;21.09;49.00;102330.13;2077180;28;3789;-68
2021/04/15 02:10:56;;;;;;;;;;;;;;;21.07;49.07;102327.59;2078620;28;3928;-69
2021/04/15 02:11:57;;;;;;;;;;;;;;;21.07;49.10;102327.59;2077299;28;3892;-69
2021/04/15 02:12:58;;;;;;;;;;;;;;;21.08;49.08;102322.72;2077696;28;4026;-69
2021/04/15 02:13:59;;;;;;;;;;;;;;;21.07;49.08;102324.72;2078198;28;4015;-69
2021/04/15 02:14:59;;;;;;;;;;;;;;;21.07;49.00;102323.91;2075515;28;3816;-69
2021/04/15 02:16:00;;;;;;;;;;;;;;;21.06;49.07;102328.75;2078020;28;3948;-69
2021/04/15 02:17:01;;;;;;;;;;;;;;;21.07;48.93;102333.28;2076841;28;3788;-69
2021/04/15 02:18:02;;;;;;;;;;;;;;;21.07;48.92;102326.75;2078063;28;3836;-69
2021/04/15 02:19:02;;;;;;;;;;;;;;;21.07;49.01;102332.44;2077798;28;3789;-69
2021/04/15 02:20:03;;;;;;;;;;;;;;;21.06;48.97;102331.59;2077353;28;3832;-69
2021/04/15 02:21:04;;;;;;;;;;;;;;;21.07;49.02;102332.44;2078098;28;3857;-69
2021/04/15 02:22:05;;;;;;;;;;;;;;;21.06;49.05;102336.41;2077624;28;4002;-69
2021/04/15 02:23:05;;;;;;;;;;;;;;;21.07;49.09;102329.59;2077765;28;3978;-68
2021/04/15 02:24:06;;;;;;;;;;;;;;;21.07;48.97;102329.59;2077511;28;3752;-69
2021/04/15 02:25:07;;;;;;;;;;;;;;;21.05;48.95;102329.88;2077737;28;3784;-69
2021/04/15 02:26:08;;;;;;;;;;;;;;;21.06;49.04;102334.44;2077157;28;3827;-69
2021/04/15 02:27:09;;;;;;;;;;;;;;;21.06;48.91;102331.59;2077572;28;3877;-69
2021/04/15 02:28:09;;;;;;;;;;;;;;;21.06;48.94;102334.44;2077302;28;3777;-69
2021/04/15 02:29:10;;;;;;;;;;;;;;;21.06;48.90;102330.72;2077781;28;4002;-68
2021/04/15 02:30:11;;;;;;;;;;;;;;;21.05;49.07;102329.06;2078166;28;4099;-68
2021/04/15 02:31:12;;;;;;;;;;;;;;;21.05;49.08;102324.19;2068971;28;3879;-68
2021/04/15 02:32:12;;;;;;;;;;;;;;;21.06;48.93;102325.03;2068669;28;3821;-69
2021/04/15 02:33:13;;;;;;;;;;;;;;;21.05;48.92;102324.19;2078034;28;3970;-69
2021/04/15 02:34:14;;;;;;;;;;;;;;;21.04;49.04;102325.38;2076280;28;4215;-69
2021/04/15 02:35:14;;;;;;;;;;;;;;;21.05;48.96;102329.06;2077423;28;3975;-69
2021/04/15 02:36:15;;;;;;;;;;;;;;;21.04;49.06;102322.53;2077643;28;3747;-69
2021/04/15 02:37:16;;;;;;;;;;;;;;;21.04;49.06;102331.06;2077295;28;3924;-69
2021/04/15 02:38:17;;;;;;;;;;;;;;;21.04;48.95;102324.53;2077401;28;3866;-70
2021/04/15 02:39:17;;;;;;;;;;;;;;;21.04;49.11;102328.22;2077776;28;3839;-70
2021/04/15 02:40:19;;;;;;;;;;;;;;;21.04;49.06;102322.53;2077757;28;4057;-70
2021/04/15 02:41:19;;;;;;;;;;;;;;;21.04;48.99;102327.38;2077868;28;3734;-70
2021/04/15 02:42:23;;;;;;;;;;;;;;;21.04;48.89;102321.69;2077437;28;3732;-70
2021/04/15 02:43:25;;;;;;;;;;;;;;;21.03;49.12;102323.66;2077391;28;5062;-70
2021/04/15 02:44:29;;;;;;;;;;;;;;;21.04;49.04;102311.16;2078050;28;3788;-70
2021/04/15 02:45:32;;;;;;;;;;;;;;;21.04;48.92;102325.38;2079032;28;6136;-70
2021/04/15 02:46:33;;;;;;;;;;;;;;;21.04;48.94;102321.69;2077461;28;3856;-70
2021/04/15 02:47:34;;;;;;;;;;;;;;;21.04;49.13;102325.38;2077076;28;3998;-70
2021/04/15 02:48:34;;;;;;;;;;;;;;;21.04;49.00;102316.00;2075982;28;3782;-70
2021/04/15 02:49:35;;;;;;;;;;;;;;;21.04;48.89;102321.69;2076591;28;3853;-70
2021/04/15 02:50:36;;;;;;;;;;;;;;;21.04;48.99;102321.69;2077616;28;3945;-70
2021/04/15 02:51:37;;;;;;;;;;;;;;;21.03;49.01;102320.81;2078142;28;3875;-70
2021/04/15 02:52:37;;;;;;;;;;;;;;;21.03;49.08;102314.28;2075370;28;3891;-70
2021/04/15 02:53:38;;;;;;;;;;;;;;;21.03;48.97;102319.97;2077639;28;3895;-70
2021/04/15 02:54:39;;;;;;;;;;;;;;;21.03;48.99;102319.97;2077819;28;4003;-70
2021/04/15 02:55:39;;;;;;;;;;;;;;;21.02;48.91;102318.31;2077842;28;4337;-70
2021/04/15 02:56:40;;;;;;;;;;;;;;;21.03;48.92;102325.66;2078050;28;3865;-70
2021/04/15 02:57:41;;;;;;;;;;;;;;;21.02;48.93;102324.00;2075308;28;4035;-69
2021/04/15 02:58:41;;;;;;;;;;;;;;;21.02;49.02;102321.16;2077649;28;4002;-70
2021/04/15 02:59:42;;;;;;;;;;;;;;;21.02;49.02;102324.00;2077128;28;4010;-69
2021/04/15 03:00:43;;;;;;;;;;;;;;;21.02;48.96;102324.84;2077319;28;5615;-70
2021/04/15 03:01:44;;;;;;;;;;;;;;;21.01;48.94;102323.16;2077337;28;3832;-70
2021/04/15 03:02:44;;;;;;;;;;;;;;;21.01;48.95;102320.31;2076684;28;3868;-69
2021/04/15 03:03:48;;;;;;;;;;;;;;;21.01;49.00;102311.78;2076893;28;3839;-70
2021/04/15 03:04:49;;;;;;;;;;;;;;;21.01;48.93;102310.94;2077461;28;4018;-69
2021/04/15 03:05:49;;;;;;;;;;;;;;;21.01;48.94;102320.31;2077847;28;3797;-69
2021/04/15 03:06:50;;;;;;;;;;;;;;;21.01;48.94;102316.63;2076848;28;4042;-70
2021/04/15 03:07:51;;;;;;;;;;;;;;;21.01;48.93;102322.31;2077534;28;4013;-69
2021/04/15 03:08:52;;;;;;;;;;;;;;;21.01;49.01;102325.16;2077627;28;3960;-69
2021/04/15 03:09:52;;;;;;;;;;;;;;;21.01;49.04;102322.31;2077780;28;3859;-70
2021/04/15 03:10:53;;;;;;;;;;;;;;;21.01;49.04;102322.31;2076802;28;3819;-70
2021/04/15 03:11:54;;;;;;;;;;;;;;;21.00;48.97;102326.31;2077723;28;3829;-69
2021/04/15 03:12:54;;;;;;;;;;;;;;;21.00;48.83;102323.47;2077020;28;3825;-69
2021/04/15 03:13:55;;;;;;;;;;;;;;;21.00;48.75;102318.59;2077954;28;3842;-69
2021/04/15 03:14:56;;;;;;;;;;;;;;;21.00;48.92;102324.31;2076705;28;3811;-69
2021/04/15 03:15:57;;;;;;;;;;;;;;;21.00;49.06;102323.47;2076136;28;3874;-69
2021/04/15 03:16:57;;;;;;;;;;;;;;;21.00;49.03;102323.47;2076499;28;3831;-69
2021/04/15 03:17:58;;;;;;;;;;;;;;;21.00;49.02;102323.47;2077647;28;3857;-69
2021/04/15 03:18:59;;;;;;;;;;;;;;;20.99;48.95;102324.63;2077631;28;3895;-69
2021/04/15 03:19:59;;;;;;;;;;;;;;;20.99;48.91;102322.63;2077596;28;3878;-70
2021/04/15 03:21:00;;;;;;;;;;;;;;;20.99;49.03;102324.63;2076957;28;3831;-69
2021/04/15 03:22:01;;;;;;;;;;;;;;;20.98;48.90;102320.94;2077463;28;3861;-70
2021/04/15 03:23:02;;;;;;;;;;;;;;;20.99;49.06;102318.94;2076964;28;4025;-70
2021/04/15 03:24:03;;;;;;;;;;;;;;;20.99;48.95;102328.31;2077431;28;4002;-69
2021/04/15 03:25:04;;;;;;;;;;;;;;;20.98;49.01;102318.09;2076738;28;3909;-69
2021/04/15 03:26:05;;;;;;;;;;;;;;;20.99;49.08;102324.63;2077796;28;3886;-69
2021/04/15 03:27:05;;;;;;;;;;;;;;;20.98;49.06;102329.50;2076982;28;3733;-69
2021/04/15 03:28:06;;;;;;;;;;;;;;;20.99;49.03;102324.63;2076701;28;4233;-69
2021/04/15 03:29:07;;;;;;;;;;;;;;;20.99;48.97;102321.78;2077807;28;3858;-69
2021/04/15 03:30:08;;;;;;;;;;;;;;;20.98;48.92;102322.94;2076792;28;3849;-69
2021/04/15 03:31:09;;;;;;;;;;;;;;;20.98;49.04;102326.66;2077241;28;3991;-69
2021/04/15 03:32:09;;;;;;;;;;;;;;;20.98;49.01;102320.94;2075006;28;4086;-70
2021/04/15 03:33:11;;;;;;;;;;;;;;;20.99;49.06;102324.63;2077681;28;4275;-69
2021/04/15 03:34:12;;;;;;;;;;;;;;;20.99;49.01;102318.94;2076911;28;3785;-70
2021/04/15 03:35:13;;;;;;;;;;;;;;;20.98;49.21;102320.94;2076785;28;3737;-70
2021/04/15 03:36:14;;;;;;;;;;;;;;;20.98;49.07;102325.78;2077919;28;3843;-70
2021/04/15 03:37:15;;;;;;;;;;;;;;;20.98;49.02;102323.78;2077522;28;3858;-70
2021/04/15 03:38:15;;;;;;;;;;;;;;;20.97;49.10;102319.25;2076854;28;3907;-69
2021/04/15 03:39:18;;;;;;;;;;;;;;;20.98;49.03;102320.09;2076900;28;3923;-69
2021/04/15 03:40:19;;;;;;;;;;;;;;;20.98;49.17;102328.63;2076711;28;4328;-69
2021/04/15 03:41:20;;;;;;;;;;;;;;;20.98;49.08;102320.09;2077258;28;3969;-68
2021/04/15 03:42:20;;;;;;;;;;;;;;;20.98;49.22;102322.94;2076906;28;3943;-69
2021/04/15 03:43:21;;;;;;;;;;;;;;;20.98;49.14;102322.94;2077555;28;3873;-69
2021/04/15 03:44:22;;;;;;;;;;;;;;;20.98;48.93;102322.94;2076734;28;5048;-69
2021/04/15 03:45:23;;;;;;;;;;;;;;;20.98;49.06;102329.50;2076844;28;3802;-70
2021/04/15 03:46:24;;;;;;;;;;;;;;;20.97;49.08;102321.25;2077019;28;3854;-69
2021/04/15 03:47:24;;;;;;;;;;;;;;;20.97;49.01;102318.41;2076392;28;3748;-70
2021/04/15 03:48:26;;;;;;;;;;;;;;;20.96;49.09;102326.09;2077008;28;4021;-69
2021/04/15 03:49:26;;;;;;;;;;;;;;;20.97;49.14;102324.09;2077570;28;3867;-70
2021/04/15 03:50:27;;;;;;;;;;;;;;;20.96;48.99;102328.13;2076998;28;4015;-69
2021/04/15 03:51:28;;;;;;;;;;;;;;;20.97;49.03;102329.78;2077601;28;3876;-71
2021/04/15 03:52:29;;;;;;;;;;;;;;;20.97;49.09;102335.47;2076931;28;3764;-68
2021/04/15 03:53:29;;;;;;;;;;;;;;;20.96;49.08;102330.97;2077694;28;4001;-69
2021/04/15 03:54:31;;;;;;;;;;;;;;;20.95;49.06;102330.13;2077649;28;4011;-69
2021/04/15 03:55:32;;;;;;;;;;;;;;;20.95;49.05;102329.25;2075742;28;4261;-69
2021/04/15 03:56:32;;;;;;;;;;;;;;;20.96;49.24;102328.94;2077103;28;3930;-70
2021/04/15 03:57:33;;;;;;;;;;;;;;;20.95;49.20;102332.97;2077720;28;3983;-69
2021/04/15 03:58:34;;;;;;;;;;;;;;;20.95;49.21;102329.25;2076832;28;3840;-69
2021/04/15 03:59:35;;;;;;;;;;;;;;;20.94;49.15;102325.56;2077443;28;3892;-69
2021/04/15 04:00:35;;;;;;;;;;;;;;;20.95;49.28;102330.13;2076568;28;3945;-69
2021/04/15 04:01:36;;;;;;;;;;;;;;;20.95;49.23;102332.09;2076884;28;4109;-69
2021/04/15 04:02:37;;;;;;;;;;;;;;;20.95;49.02;102326.41;2077274;28;3938;-69
2021/04/15 04:03:38;;;;;;;;;;;;;;;20.96;49.18;102330.97;2077000;28;4034;-69
2021/04/15 04:04:40;;;;;;;;;;;;;;;20.95;49.25;102323.56;2077509;28;3754;-69
2021/04/15 04:05:41;;;;;;;;;;;;;;;20.95;49.08;102326.41;2077098;28;3806;-68
2021/04/15 04:06:42;;;;;;;;;;;;;;;20.94;49.07;102321.88;2075300;28;3947;-69
2021/04/15 04:07:43;;;;;;;;;;;;;;;20.94;49.05;102324.75;2077417;28;4028;-69
2021/04/15 04:08:44;;;;;;;;;;;;;;;20.93;49.05;102329.59;2077008;28;3867;-69
2021/04/15 04:09:45;;;;;;;;;;;;;;;20.94;49.25;102327.59;2068460;28;3880;-71
2021/04/15 04:10:45;;;;;;;;;;;;;;;20.93;49.02;102323.91;2071458;28;3996;-69
2021/04/15 04:11:46;;;;;;;;;;;;;;;20.94;48.98;102330.44;2077653;28;3828;-70
2021/04/15 04:12:47;;;;;;;;;;;;;;;20.94;48.99;102327.59;2076845;28;4024;-70
2021/04/15 04:13:48;;;;;;;;;;;;;;;20.93;48.99;102332.44;2074900;28;4018;-69
2021/04/15 04:14:48;;;;;;;;;;;;;;;20.93;49.10;102329.59;2077156;28;3868;-69
2021/04/15 04:15:49;;;;;;;;;;;;;;;20.94;48.99;102336.13;2077664;28;3853;-69
2021/04/15 04:16:50;;;;;;;;;;;;;;;20.92;49.16;102330.72;2077725;28;5103;-69
2021/04/15 04:17:51;;;;;;;;;;;;;;;20.93;49.00;102331.59;2077282;28;3863;-69
2021/04/15 04:18:52;;;;;;;;;;;;;;;20.93;49.01;102335.28;2077144;28;3873;-69
2021/04/15 04:19:53;;;;;;;;;;;;;;;20.93;48.94;102343.81;2077072;28;4436;-69
2021/04/15 04:20:54;;;;;;;;;;;;;;;20.93;49.03;102334.44;2076503;28;4011;-69
2021/04/15 04:21:54;;;;;;;;;;;;;;;20.92;48.88;102336.41;2075364;28;4234;-69
2021/04/15 04:22:55;;;;;;;;;;;;;;;20.93;48.97;102331.59;2077046;28;4225;-69
2021/04/15 04:23:56;;;;;;;;;;;;;;;20.92;48.95;102336.41;2077103;28;3716;-69
2021/04/15 04:24:56;;;;;;;;;;;;;;;20.91;49.13;102338.44;2068270;28;4093;-69
2021/04/15 04:25:57;;;;;;;;;;;;;;;20.91;48.96;102338.44;2066965;28;4025;-69
2021/04/15 04:26:58;;;;;;;;;;;;;;;20.93;49.08;102340.13;2077165;28;3985;-69
2021/04/15 04:27:59;;;;;;;;;;;;;;;20.92;49.06;102333.56;2076960;28;4055;-69
2021/04/15 04:29:00;;;;;;;;;;;;;;;20.92;48.93;102339.25;2076930;28;3745;-68
2021/04/15 04:30:00;;;;;;;;;;;;;;;20.92;49.09;102342.09;2076497;28;3981;-69
2021/04/15 04:31:01;;;;;;;;;;;;;;;20.92;49.00;102342.09;2076176;28;3869;-69
2021/04/15 04:32:02;;;;;;;;;;;;;;;20.91;48.93;102338.44;2077038;28;3801;-68
2021/04/15 04:33:03;;;;;;;;;;;;;;;20.91;49.17;102344.13;2076801;28;4316;-69
2021/04/15 04:34:10;;;;;;;;;;;;;;;20.91;49.11;102341.28;2077114;28;4095;-68
2021/04/15 04:35:11;;;;;;;;;;;;;;;20.91;48.92;102344.13;2077241;28;4043;-68
2021/04/15 04:36:11;;;;;;;;;;;;;;;20.91;48.92;102343.28;2077002;28;3717;-69
2021/04/15 04:37:13;;;;;;;;;;;;;;;20.91;49.00;102343.28;2077250;28;3848;-69
2021/04/15 04:38:14;;;;;;;;;;;;;;;20.91;49.07;102354.66;2076540;28;3812;-69
2021/04/15 04:39:14;;;;;;;;;;;;;;;20.89;48.96;102354.97;2076544;28;4079;-69
2021/04/15 04:40:15;;;;;;;;;;;;;;;20.90;48.92;102344.44;2076980;28;4097;-69
2021/04/15 04:41:16;;;;;;;;;;;;;;;20.90;49.06;102359.50;2075391;28;3827;-68
2021/04/15 04:42:17;;;;;;;;;;;;;;;20.89;48.96;102354.13;2077237;28;3865;-69
2021/04/15 04:43:17;;;;;;;;;;;;;;;20.90;49.01;102355.84;2077694;28;3838;-68
2021/04/15 04:44:18;;;;;;;;;;;;;;;20.89;49.02;102356.97;2079021;28;3977;-69
2021/04/15 04:45:19;;;;;;;;;;;;;;;20.90;48.92;102355.84;2078746;28;3863;-68
2021/04/15 04:46:19;;;;;;;;;;;;;;;20.89;48.92;102352.13;2078173;28;3929;-68
2021/04/15 04:47:20;;;;;;;;;;;;;;;20.90;48.94;102356.66;2078501;28;3955;-69
2021/04/15 04:48:21;;;;;;;;;;;;;;;20.89;49.07;102360.66;2078490;28;3863;-69
2021/04/15 04:49:22;;;;;;;;;;;;;;;20.90;48.92;102356.66;2077895;28;3871;-69
2021/04/15 04:50:23;;;;;;;;;;;;;;;20.89;48.97;102357.81;2078775;28;4014;-69
2021/04/15 04:51:24;;;;;;;;;;;;;;;20.89;49.05;102359.81;2077871;28;3889;-68
2021/04/15 04:52:25;;;;;;;;;;;;;;;20.88;49.09;102352.44;2078384;28;4046;-68
2021/04/15 04:53:26;;;;;;;;;;;;;;;20.88;48.92;102367.50;2078077;28;3999;-68
2021/04/15 04:54:27;;;;;;;;;;;;;;;20.89;48.96;102362.66;2079383;28;4052;-68
2021/04/15 04:55:28;;;;;;;;;;;;;;;20.88;48.94;102358.13;2078519;28;4030;-67
2021/04/15 04:56:35;;;;;;;;;;;;;;;20.88;48.93;102370.34;2078517;28;4054;-68
2021/04/15 04:57:36;;;;;;;;;;;;;;;20.87;48.88;102365.84;2078362;28;3918;-68
2021/04/15 04:58:37;;;;;;;;;;;;;;;20.88;48.89;102369.53;2078573;28;3836;-68
2021/04/15 04:59:37;;;;;;;;;;;;;;;20.88;49.02;102370.34;2078687;28;4002;-67
2021/04/15 05:00:38;;;;;;;;;;;;;;;20.87;48.92;102365.84;2077538;28;3881;-68
2021/04/15 05:01:40;;;;;;;;;;;;;;;20.87;48.87;102365.84;2078517;28;3910;-68
2021/04/15 05:02:41;;;;;;;;;;;;;;;20.87;48.98;102367.84;2078482;28;3976;-68
2021/04/15 05:03:42;;;;;;;;;;;;;;;20.87;49.02;102370.69;2078556;28;3852;-69
2021/04/15 05:04:43;;;;;;;;;;;;;;;20.86;48.93;102372.66;2078433;28;3860;-68
2021/04/15 05:05:44;;;;;;;;;;;;;;;20.86;48.89;102366.97;2078623;28;3921;-68
2021/04/15 05:06:45;;;;;;;;;;;;;;;20.86;48.90;102372.66;2078838;28;3889;-67
2021/04/15 05:07:45;;;;;;;;;;;;;;;20.87;48.93;102376.38;2078572;28;3950;-68
2021/04/15 05:08:46;;;;;;;;;;;;;;;20.85;48.79;102376.69;2078528;28;3887;-68
2021/04/15 05:09:47;;;;;;;;;;;;;;;20.85;48.82;102373.84;2077775;28;3853;-68
2021/04/15 05:10:48;;;;;;;;;;;;;;;20.85;48.83;102373.84;2077709;28;3879;-69
2021/04/15 05:11:48;;;;;;;;;;;;;;;20.86;48.98;102366.97;2079487;28;3876;-68
2021/04/15 05:12:49;;;;;;;;;;;;;;;20.86;48.76;102372.66;2078859;28;3997;-69
2021/04/15 05:13:50;;;;;;;;;;;;;;;20.86;48.84;102372.66;2073486;28;4001;-69
2021/04/15 05:14:51;;;;;;;;;;;;;;;20.84;48.83;102369.31;2073016;28;4039;-68
2021/04/15 05:15:51;;;;;;;;;;;;;;;20.85;48.72;102368.16;2078477;28;3995;-67
2021/04/15 05:16:52;;;;;;;;;;;;;;;20.85;48.79;102373.84;2077898;28;3848;-67
2021/04/15 05:17:53;;;;;;;;;;;;;;;20.85;48.78;102376.69;2078270;28;3860;-67